createdAt,value
2018-02-13T00:01:33.107Z,66.80
2018-02-13T00:04:01.465Z,67.00
2018-02-13T00:06:29.931Z,66.90
2018-02-13T00:08:58.296Z,67.10
2018-02-13T00:11:26.656Z,67.00
2018-02-13T00:13:55.840Z,67.10
2018-02-13T00:16:24.978Z,67.30
2018-02-13T00:18:53.376Z,67.20
2018-02-13T00:21:21.767Z,67.20
2018-02-13T00:23:50.209Z,67.50
2018-02-13T00:26:18.572Z,67.50
2018-02-13T00:28:46.972Z,67.90
2018-02-13T00:31:16.332Z,68.10
2018-02-13T00:33:45.924Z,68.60
2018-02-13T00:36:14.333Z,68.60
2018-02-13T00:38:42.748Z,68.80
2018-02-13T00:41:11.172Z,68.70
2018-02-13T00:43:40.717Z,68.60
2018-02-13T00:46:10.077Z,68.60
2018-02-13T00:48:38.456Z,68.70
2018-02-13T00:51:07.624Z,68.30
2018-02-13T00:53:36.004Z,68.30
2018-02-13T00:56:04.380Z,68.20
2018-02-13T00:58:32.770Z,68.30
2018-02-13T01:01:01.136Z,68.30
2018-02-13T01:03:29.500Z,68.60
2018-02-13T01:05:58.028Z,68.50
2018-02-13T01:08:27.355Z,68.80
2018-02-13T01:10:55.741Z,68.10
2018-02-13T01:13:24.161Z,68.10
2018-02-13T01:15:52.524Z,68.10
2018-02-13T01:18:20.909Z,68.00
2018-02-13T01:20:49.310Z,68.10
2018-02-13T01:23:17.676Z,68.00
2018-02-13T01:25:46.072Z,68.00
2018-02-13T01:28:16.003Z,68.40
2018-02-13T01:30:45.144Z,68.30
2018-02-13T01:33:13.501Z,68.30
2018-02-13T01:35:41.894Z,68.50
2018-02-13T01:38:10.265Z,68.70
2018-02-13T01:40:38.632Z,68.80
2018-02-13T01:43:07.034Z,68.90
2018-02-13T01:45:35.644Z,68.90
2018-02-13T01:48:04.789Z,69.60
2018-02-13T01:50:33.588Z,68.90
2018-02-13T01:53:01.957Z,69.00
2018-02-13T01:55:30.333Z,68.80
2018-02-13T01:57:58.791Z,68.70
2018-02-13T02:00:27.921Z,70.10
2018-02-13T02:02:56.286Z,70.10
2018-02-13T02:05:24.697Z,70.10
2018-02-13T02:07:53.074Z,69.70
2018-02-13T02:10:21.459Z,69.20
2018-02-13T02:12:49.875Z,68.90
2018-02-13T02:15:19.018Z,68.90
2018-02-13T02:17:47.388Z,68.90
2018-02-13T02:20:15.810Z,69.10
2018-02-13T02:22:44.193Z,69.00
2018-02-13T02:25:12.561Z,69.00
2018-02-13T02:27:40.976Z,68.70
2018-02-13T02:30:10.109Z,68.20
2018-02-13T02:32:38.482Z,68.10
2018-02-13T02:35:06.896Z,68.50
2018-02-13T02:37:35.269Z,68.80
2018-02-13T02:40:03.705Z,68.70
2018-02-13T02:42:49.842Z,68.60
2018-02-13T02:45:18.217Z,68.80
2018-02-13T02:47:46.688Z,69.10
2018-02-13T02:50:15.105Z,69.00
2018-02-13T02:52:43.483Z,69.00
2018-02-13T02:55:11.857Z,69.10
2018-02-13T02:57:40.254Z,68.60
2018-02-13T03:00:09.385Z,68.90
2018-02-13T03:02:37.761Z,68.90
2018-02-13T03:05:06.158Z,69.00
2018-02-13T03:07:34.525Z,69.20
2018-02-13T03:10:02.954Z,69.20
2018-02-13T03:12:32.207Z,69.30
2018-02-13T03:15:00.578Z,69.10
2018-02-13T03:17:28.945Z,69.70
2018-02-13T03:19:57.365Z,69.80
2018-02-13T03:22:25.784Z,69.10
2018-02-13T03:24:54.917Z,70.00
2018-02-13T03:27:23.318Z,69.20
2018-02-13T03:29:51.702Z,69.30
2018-02-13T03:32:20.077Z,69.20
2018-02-13T03:34:48.507Z,69.30
2018-02-13T03:37:16.925Z,69.80
2018-02-13T03:39:45.297Z,70.10
2018-02-13T03:42:13.876Z,70.00
2018-02-13T03:44:42.253Z,70.10
2018-02-13T03:47:10.616Z,69.70
2018-02-13T03:49:39.149Z,69.90
2018-02-13T03:52:07.516Z,70.00
2018-02-13T03:54:35.894Z,70.50
2018-02-13T03:57:04.324Z,70.50
2018-02-13T03:59:32.706Z,70.10
2018-02-13T04:02:01.087Z,69.20
2018-02-13T04:04:29.490Z,68.60
2018-02-13T04:06:57.860Z,69.20
2018-02-13T04:09:26.238Z,69.60
2018-02-13T04:11:54.645Z,69.50
2018-02-13T04:14:23.031Z,70.20
2018-02-13T04:16:51.407Z,70.00
2018-02-13T04:19:19.836Z,70.60
2018-02-13T04:21:48.225Z,70.90
2018-02-13T04:24:16.598Z,70.60
2018-02-13T04:26:45.010Z,70.80
2018-02-13T04:29:13.387Z,71.30
2018-02-13T04:31:41.767Z,71.00
2018-02-13T04:34:10.184Z,70.90
2018-02-13T04:36:39.344Z,71.00
2018-02-13T04:39:07.728Z,70.90
2018-02-13T04:41:36.144Z,70.60
2018-02-13T04:44:04.526Z,70.40
2018-02-13T04:46:32.898Z,70.40
2018-02-13T04:49:01.312Z,70.40
2018-02-13T04:51:29.983Z,70.70
2018-02-13T04:53:59.099Z,70.30
2018-02-13T04:56:27.501Z,70.40
2018-02-13T04:58:55.880Z,70.70
2018-02-13T05:01:24.254Z,70.40
2018-02-13T05:03:52.678Z,70.20
2018-02-13T05:06:21.058Z,70.70
2018-02-13T05:08:49.433Z,70.60
2018-02-13T05:11:18.609Z,70.30
2018-02-13T05:13:47.754Z,68.90
2018-02-13T05:16:16.134Z,68.90
2018-02-13T05:18:44.550Z,68.20
2018-02-13T05:21:12.925Z,68.50
2018-02-13T05:23:41.301Z,68.90
2018-02-13T05:26:09.761Z,69.30
2018-02-13T05:28:38.118Z,69.40
2018-02-13T05:31:06.492Z,69.20
2018-02-13T05:33:34.902Z,69.20
2018-02-13T05:36:03.274Z,69.30
2018-02-13T05:38:31.665Z,68.80
2018-02-13T05:41:00.078Z,68.90
2018-02-13T05:43:29.218Z,69.00
2018-02-13T05:45:57.585Z,69.00
2018-02-13T05:48:26.008Z,69.00
2018-02-13T05:50:54.445Z,68.90
2018-02-13T05:53:23.774Z,68.90
2018-02-13T05:55:52.178Z,68.90
2018-02-13T05:58:20.550Z,68.80
2018-02-13T06:00:48.930Z,69.00
2018-02-13T06:03:17.329Z,68.80
2018-02-13T06:05:46.485Z,68.90
2018-02-13T06:08:14.877Z,68.90
2018-02-13T06:10:43.306Z,69.10
2018-02-13T06:13:11.689Z,69.20
2018-02-13T06:15:40.060Z,69.30
2018-02-13T06:18:08.473Z,69.50
2018-02-13T06:20:36.856Z,69.90
2018-02-13T06:23:05.277Z,70.00
2018-02-13T06:25:34.601Z,69.20
2018-02-13T06:28:02.985Z,69.10
2018-02-13T06:30:31.349Z,68.80
2018-02-13T06:32:59.776Z,68.50
2018-02-13T06:35:28.320Z,68.50
2018-02-13T06:37:56.693Z,68.60
2018-02-13T06:40:25.115Z,68.60
2018-02-13T06:42:53.495Z,68.50
2018-02-13T06:45:21.873Z,68.20
2018-02-13T06:47:50.276Z,67.60
2018-02-13T06:50:18.716Z,67.10
2018-02-13T06:52:47.090Z,67.10
2018-02-13T06:55:15.509Z,67.10
2018-02-13T06:57:43.890Z,67.90
2018-02-13T07:00:12.253Z,68.10
2018-02-13T07:02:40.682Z,68.10
2018-02-13T07:05:09.057Z,68.10
2018-02-13T07:07:37.426Z,67.90
2018-02-13T07:10:06.602Z,67.50
2018-02-13T07:12:34.979Z,67.50
2018-02-13T07:15:03.370Z,67.20
2018-02-13T07:17:32.550Z,65.50
2018-02-13T07:20:00.913Z,65.50
2018-02-13T07:22:29.274Z,64.80
2018-02-13T07:24:57.672Z,64.50
2018-02-13T07:27:26.037Z,63.40
2018-02-13T07:29:54.410Z,62.80
2018-02-13T07:32:22.809Z,62.10
2018-02-13T07:34:51.267Z,61.20
2018-02-13T07:37:19.641Z,59.80
2018-02-13T07:39:48.057Z,58.30
2018-02-13T07:42:16.426Z,57.50
2018-02-13T07:44:44.781Z,56.60
2018-02-13T07:47:13.253Z,55.90
2018-02-13T07:49:41.616Z,55.90
2018-02-13T07:52:10.018Z,55.50
2018-02-13T07:54:38.426Z,54.70
2018-02-13T07:57:06.801Z,54.00
2018-02-13T07:59:35.160Z,52.60
2018-02-13T08:02:03.582Z,52.10
2018-02-13T08:04:32.701Z,49.10
2018-02-13T08:07:01.070Z,49.00
2018-02-13T08:09:30.238Z,44.60
2018-02-13T08:11:58.610Z,44.50
2018-02-13T08:14:26.980Z,42.10
2018-02-13T08:16:55.377Z,38.80
2018-02-13T08:19:23.759Z,36.10
2018-02-13T08:21:52.908Z,32.50
2018-02-13T08:24:21.329Z,32.90
2018-02-13T08:26:49.708Z,31.90
2018-02-13T08:29:18.089Z,30.90
2018-02-13T08:31:47.263Z,29.30
2018-02-13T08:34:15.694Z,29.30
2018-02-13T08:36:44.068Z,28.80
2018-02-13T08:39:12.468Z,27.90
2018-02-13T08:41:40.846Z,27.60
2018-02-13T08:44:09.228Z,27.10
2018-02-13T08:46:37.655Z,25.90
2018-02-13T08:49:06.200Z,25.20
2018-02-13T08:51:34.597Z,24.70
2018-02-13T08:54:03.009Z,24.10
2018-02-13T08:56:32.145Z,23.30
2018-02-13T08:59:00.520Z,23.20
2018-02-13T09:01:29.027Z,23.10
2018-02-13T09:03:57.412Z,23.10
2018-02-13T09:06:25.773Z,22.30
2018-02-13T09:08:54.344Z,22.40
2018-02-13T09:11:22.717Z,21.80
2018-02-13T09:13:51.090Z,21.30
2018-02-13T09:16:19.501Z,20.60
2018-02-13T09:18:47.873Z,20.60
2018-02-13T09:21:16.236Z,20.10
2018-02-13T09:23:44.651Z,19.40
2018-02-13T09:26:13.013Z,19.60
2018-02-13T09:28:41.372Z,19.90
2018-02-13T09:31:09.786Z,20.10
2018-02-13T09:33:38.190Z,21.20
2018-02-13T09:36:07.634Z,20.50
2018-02-13T09:38:36.044Z,20.50
2018-02-13T09:41:04.496Z,20.70
2018-02-13T09:43:32.910Z,21.50
2018-02-13T09:46:01.318Z,22.90
2018-02-13T09:48:30.457Z,27.20
2018-02-13T09:50:58.833Z,27.20
2018-02-13T09:53:27.394Z,28.60
2018-02-13T09:55:55.765Z,30.40
2018-02-13T09:58:24.143Z,31.80
2018-02-13T10:00:52.849Z,34.50
2018-02-13T10:03:21.881Z,35.90
2018-02-13T10:05:50.332Z,36.90
2018-02-13T10:08:18.753Z,38.20
2018-02-13T10:10:47.881Z,39.90
2018-02-13T10:13:16.449Z,40.00
2018-02-13T10:15:45.484Z,40.60
2018-02-13T10:18:13.878Z,42.20
2018-02-13T10:20:42.272Z,43.20
2018-02-13T10:23:10.715Z,42.80
2018-02-13T10:25:39.082Z,43.20
2018-02-13T10:28:07.441Z,41.90
2018-02-13T10:30:36.596Z,40.10
2018-02-13T10:33:04.976Z,40.10
2018-02-13T10:35:33.361Z,39.90
2018-02-13T10:38:01.777Z,39.10
2018-02-13T10:40:30.180Z,40.50
2018-02-13T10:42:58.609Z,40.80
2018-02-13T10:45:27.090Z,42.10
2018-02-13T10:47:55.746Z,43.30
2018-02-13T10:50:24.336Z,44.10
2018-02-13T10:52:52.737Z,44.60
2018-02-13T10:55:21.104Z,45.30
2018-02-13T10:57:49.493Z,45.70
2018-02-13T11:00:18.066Z,45.70
2018-02-13T11:02:46.894Z,46.10
2018-02-13T11:05:15.359Z,46.40
2018-02-13T11:07:44.810Z,45.70
2018-02-13T11:10:13.213Z,45.70
2018-02-13T11:12:41.582Z,45.80
2018-02-13T11:15:10.404Z,46.50
2018-02-13T11:17:39.533Z,44.20
2018-02-13T11:20:08.077Z,44.20
2018-02-13T11:22:38.125Z,45.10
2018-02-13T11:25:07.138Z,44.60
2018-02-13T11:27:35.996Z,44.90
2018-02-13T11:30:04.474Z,41.90
2018-02-13T11:32:33.610Z,43.20
2018-02-13T11:35:02.192Z,43.20
2018-02-13T11:37:30.603Z,43.30
2018-02-13T11:39:58.968Z,42.40
2018-02-13T11:42:27.463Z,42.20
2018-02-13T11:44:56.146Z,41.70
2018-02-13T11:47:24.506Z,40.70
2018-02-13T11:49:52.872Z,35.30
2018-02-13T11:52:21.317Z,34.90
2018-02-13T11:54:49.719Z,35.50
2018-02-13T11:57:18.096Z,36.40
2018-02-13T11:59:46.489Z,35.90
2018-02-13T12:02:14.851Z,36.20
2018-02-13T12:04:43.221Z,32.90
2018-02-13T12:07:11.617Z,33.00
2018-02-13T12:09:40.073Z,32.30
2018-02-13T12:12:08.441Z,29.90
2018-02-13T12:14:37.611Z,29.50
2018-02-13T12:17:05.984Z,29.50
2018-02-13T12:19:34.364Z,29.70
2018-02-13T12:22:02.760Z,30.90
2018-02-13T12:24:31.893Z,33.30
2018-02-13T12:27:00.249Z,33.30
2018-02-13T12:29:29.418Z,33.10
2018-02-13T12:31:57.772Z,33.10
2018-02-13T12:34:26.420Z,34.10
2018-02-13T12:36:54.816Z,32.10
2018-02-13T12:39:23.178Z,28.50
2018-02-13T12:41:51.553Z,24.70
2018-02-13T12:44:19.969Z,21.20
2018-02-13T12:46:48.349Z,18.70
2018-02-13T12:49:16.721Z,16.40
2018-02-13T12:51:45.402Z,14.40
2018-02-13T12:54:13.798Z,15.20
2018-02-13T12:56:42.180Z,14.80
2018-02-13T12:59:10.586Z,13.70
2018-02-13T13:01:39.708Z,14.90
2018-02-13T13:04:08.525Z,14.40
2018-02-13T13:06:42.844Z,13.80
2018-02-13T13:09:12.038Z,13.10
2018-02-13T13:11:40.429Z,13.50
2018-02-13T13:14:08.998Z,13.80
2018-02-13T13:16:37.393Z,14.00
2018-02-13T13:19:05.781Z,14.80
2018-02-13T13:21:34.181Z,14.50
2018-02-13T13:24:03.317Z,14.20
2018-02-13T13:26:31.694Z,14.10
2018-02-13T13:29:00.171Z,13.90
2018-02-13T13:31:28.582Z,14.10
2018-02-13T13:33:56.979Z,14.50
2018-02-13T13:36:25.526Z,14.90
2018-02-13T13:38:53.996Z,17.10
2018-02-13T13:41:22.408Z,18.20
2018-02-13T13:43:50.911Z,20.70
2018-02-13T13:46:19.362Z,19.60
2018-02-13T13:48:47.737Z,18.30
2018-02-13T13:51:16.145Z,17.00
2018-02-13T13:53:44.577Z,16.60
2018-02-13T13:56:12.993Z,16.50
2018-02-13T13:58:41.482Z,15.00
2018-02-13T14:01:09.887Z,14.50
2018-02-13T14:03:38.273Z,14.40
2018-02-13T14:06:06.673Z,14.00
2018-02-13T14:08:35.071Z,15.20
2018-02-13T14:11:03.558Z,15.70
2018-02-13T14:13:32.012Z,16.50
2018-02-13T14:16:00.427Z,17.70
2018-02-13T14:18:28.858Z,17.80
2018-02-13T14:20:57.286Z,20.10
2018-02-13T14:23:25.654Z,23.00
2018-02-13T14:25:54.052Z,24.90
2018-02-13T14:28:22.728Z,24.10
2018-02-13T14:30:51.116Z,22.20
2018-02-13T14:33:19.571Z,24.10
2018-02-13T14:35:48.757Z,24.70
2018-02-13T14:38:17.133Z,24.70
2018-02-13T14:40:45.536Z,25.20
2018-02-13T14:43:13.999Z,25.30
2018-02-13T14:45:42.615Z,26.30
2018-02-13T14:48:11.776Z,28.10
2018-02-13T14:50:40.168Z,28.10
2018-02-13T14:53:08.552Z,29.10
2018-02-13T14:55:36.929Z,29.30
2018-02-13T14:58:05.344Z,29.40
2018-02-13T15:00:34.596Z,29.20
2018-02-13T15:03:02.976Z,29.20
2018-02-13T15:05:32.797Z,28.70
2018-02-13T15:08:01.197Z,28.80
2018-02-13T15:10:29.601Z,28.40
2018-02-13T15:12:58.784Z,27.60
2018-02-13T15:15:29.092Z,27.60
2018-02-13T15:18:02.897Z,27.90
2018-02-13T15:20:31.336Z,28.40
2018-02-13T15:22:59.721Z,29.90
2018-02-13T15:25:28.132Z,30.80
2018-02-13T15:27:56.503Z,31.90
2018-02-13T15:30:24.892Z,32.60
2018-02-13T15:32:54.161Z,34.20
2018-02-13T15:35:23.892Z,34.30
2018-02-13T15:37:52.271Z,34.70
2018-02-13T15:40:20.708Z,35.00
2018-02-13T15:42:49.107Z,35.80
2018-02-13T15:45:17.792Z,36.30
2018-02-13T15:47:46.262Z,36.50
2018-02-13T15:50:14.675Z,36.80
2018-02-13T15:52:43.125Z,37.10
2018-02-13T15:55:11.582Z,37.30
2018-02-13T15:57:39.953Z,38.00
2018-02-13T16:00:09.136Z,41.10
2018-02-13T16:02:38.301Z,43.10
2018-02-13T16:05:06.704Z,42.40
2018-02-13T16:07:37.043Z,43.40
2018-02-13T16:10:06.241Z,44.40
2018-02-13T16:12:35.423Z,44.80
2018-02-13T16:15:03.852Z,44.80
2018-02-13T16:17:32.281Z,45.60
2018-02-13T16:20:01.475Z,45.60
2018-02-13T16:22:29.909Z,45.60
2018-02-13T16:24:58.472Z,45.60
2018-02-13T16:27:26.836Z,45.80
2018-02-13T16:29:55.964Z,45.90
2018-02-13T16:32:24.856Z,45.90
2018-02-13T16:34:53.222Z,46.10
2018-02-13T16:37:21.608Z,46.50
2018-02-13T16:39:50.103Z,46.90
2018-02-13T16:42:18.465Z,47.00
2018-02-13T16:44:46.842Z,47.40
2018-02-13T16:47:15.233Z,47.60
2018-02-13T16:49:43.602Z,47.90
2018-02-13T16:52:11.968Z,48.20
2018-02-13T16:54:40.387Z,48.70
2018-02-13T16:57:08.765Z,48.90
2018-02-13T16:59:37.140Z,49.20
2018-02-13T17:02:05.547Z,49.70
2018-02-13T17:04:34.054Z,50.00
2018-02-13T17:07:02.433Z,50.10
2018-02-13T17:09:31.615Z,50.70
2018-02-13T17:12:00.755Z,51.20
2018-02-13T17:14:29.150Z,51.20
2018-02-13T17:16:57.574Z,51.20
2018-02-13T17:19:26.741Z,51.80
2018-02-13T17:21:55.129Z,51.70
2018-02-13T17:24:24.725Z,52.50
2018-02-13T17:26:53.208Z,51.90
2018-02-13T17:29:21.596Z,52.00
2018-02-13T17:31:50.555Z,52.30
2018-02-13T17:34:19.039Z,52.20
2018-02-13T17:36:47.563Z,52.10
2018-02-13T17:39:16.744Z,52.80
2018-02-13T17:41:45.194Z,52.10
2018-02-13T17:44:13.788Z,52.20
2018-02-13T17:46:42.212Z,51.80
2018-02-13T17:49:11.352Z,51.90
2018-02-13T17:51:39.773Z,51.90
2018-02-13T17:54:08.949Z,51.90
2018-02-13T17:56:38.563Z,51.90
2018-02-13T17:59:07.449Z,51.60
2018-02-13T18:01:36.141Z,51.60
2018-02-13T18:04:05.099Z,51.70
2018-02-13T18:06:34.224Z,51.90
2018-02-13T18:09:03.246Z,51.90
2018-02-13T18:11:32.697Z,52.10
2018-02-13T18:14:01.142Z,52.00
2018-02-13T18:16:29.842Z,52.00
2018-02-13T18:18:58.291Z,52.20
2018-02-13T18:21:27.473Z,52.50
2018-02-13T18:23:56.117Z,52.50
2018-02-13T18:26:25.946Z,52.70
2018-02-13T18:28:55.787Z,53.30
2018-02-13T18:31:25.702Z,53.40
2018-02-13T18:33:55.955Z,53.50
2018-02-13T18:36:25.127Z,53.50
2018-02-13T18:38:54.451Z,53.70
2018-02-13T18:41:23.459Z,53.90
2018-02-13T18:43:52.905Z,54.10
2018-02-13T18:46:22.756Z,54.60
2018-02-13T18:48:51.594Z,54.60
2018-02-13T18:51:21.087Z,55.30
2018-02-13T18:53:50.560Z,54.70
2018-02-13T18:56:19.317Z,54.50
2018-02-13T18:58:47.962Z,54.70
2018-02-13T19:01:16.847Z,54.80
2018-02-13T19:03:45.999Z,54.90
2018-02-13T19:06:14.927Z,54.60
2018-02-13T19:08:43.729Z,54.60
2018-02-13T19:11:12.938Z,54.90
2018-02-13T19:13:42.690Z,54.90
2018-02-13T19:16:12.595Z,54.90
2018-02-13T19:18:43.181Z,54.90
2018-02-13T19:21:11.596Z,54.80
2018-02-13T19:23:40.300Z,54.80
2018-02-13T19:26:09.015Z,55.30
2018-02-13T19:28:38.589Z,55.40
2018-02-13T19:31:07.181Z,56.00
2018-02-13T19:33:36.351Z,56.40
2018-02-13T19:36:05.106Z,56.40
2018-02-13T19:38:33.630Z,56.40
2018-02-13T19:41:02.177Z,56.50
2018-02-13T19:43:30.724Z,56.40
2018-02-13T19:46:05.251Z,56.50
2018-02-13T19:48:34.771Z,56.50
2018-02-13T19:51:04.672Z,56.20
2018-02-13T19:53:33.394Z,56.70
2018-02-13T19:56:03.422Z,57.10
2018-02-13T19:58:32.881Z,57.40
2018-02-13T20:01:02.497Z,57.40
2018-02-13T20:03:31.476Z,57.10
2018-02-13T20:06:00.859Z,56.70
2018-02-13T20:08:30.883Z,56.90
2018-02-13T20:11:01.146Z,56.60
2018-02-13T20:13:31.133Z,56.50
2018-02-13T20:16:00.815Z,56.60
2018-02-13T20:18:31.399Z,56.60
2018-02-13T20:21:01.952Z,56.60
2018-02-13T20:23:32.171Z,56.60
2018-02-13T20:26:02.868Z,56.70
2018-02-13T20:28:32.179Z,57.00
2018-02-13T20:31:02.119Z,56.90
2018-02-13T20:33:31.915Z,56.90
2018-02-13T20:36:01.896Z,56.90
2018-02-13T20:38:30.404Z,56.80
2018-02-13T20:40:59.902Z,56.80
2018-02-13T20:43:29.309Z,56.70
2018-02-13T20:45:58.476Z,56.70
2018-02-13T20:48:27.770Z,56.60
2018-02-13T20:50:58.036Z,56.70
2018-02-13T20:53:27.325Z,56.80
2018-02-13T20:55:57.427Z,56.70
2018-02-13T20:58:26.933Z,56.70
2018-02-13T21:00:56.281Z,56.70
2018-02-13T21:03:25.348Z,56.70
2018-02-13T21:05:54.348Z,56.80
2018-02-13T21:08:23.734Z,56.90
2018-02-13T21:10:53.094Z,57.00
2018-02-13T21:13:23.803Z,57.10
2018-02-13T21:15:53.894Z,57.30
2018-02-13T21:18:23.421Z,57.20
2018-02-13T21:20:53.167Z,57.50
2018-02-13T21:23:23.744Z,57.70
2018-02-13T21:25:54.367Z,57.70
2018-02-13T21:28:25.010Z,57.90
2018-02-13T21:30:54.236Z,57.80
2018-02-13T21:33:23.095Z,57.90
2018-02-13T21:35:53.654Z,58.00
2018-02-13T21:38:23.761Z,58.10
2018-02-13T21:40:54.163Z,58.00
2018-02-13T21:43:23.266Z,58.00
2018-02-13T21:45:54.902Z,58.20
2018-02-13T21:48:30.051Z,58.10
2018-02-13T21:51:01.122Z,58.10
2018-02-13T21:53:30.843Z,58.10
2018-02-13T21:56:00.514Z,58.20
2018-02-13T21:58:31.252Z,58.20
2018-02-13T22:01:01.544Z,58.00
2018-02-13T22:03:32.834Z,58.10
2018-02-13T22:06:01.961Z,58.10
2018-02-13T22:08:31.756Z,58.10
2018-02-13T22:11:02.741Z,58.30
2018-02-13T22:13:33.312Z,58.30
2018-02-13T22:16:03.341Z,58.10
2018-02-13T22:18:32.324Z,58.20
2018-02-13T22:21:01.741Z,58.20
2018-02-13T22:23:30.703Z,58.10
2018-02-13T22:25:59.427Z,58.20
2018-02-13T22:28:28.339Z,58.50
2018-02-13T22:30:56.786Z,58.20
2018-02-13T22:33:26.476Z,58.20
2018-02-13T22:35:56.014Z,58.20
2018-02-13T22:38:25.913Z,58.30
2018-02-13T22:40:55.527Z,58.30
2018-02-13T22:43:25.298Z,58.40
2018-02-13T22:45:55.779Z,58.40
2018-02-13T22:48:24.617Z,58.40
2018-02-13T22:50:55.090Z,58.50
2018-02-13T22:53:25.410Z,58.80
2018-02-13T22:55:56.401Z,58.90
2018-02-13T22:58:25.326Z,58.90
2018-02-13T23:00:55.360Z,58.80
2018-02-13T23:03:25.820Z,58.80
2018-02-13T23:05:55.367Z,58.80
2018-02-13T23:08:25.114Z,58.90
2018-02-13T23:10:55.375Z,59.00
2018-02-13T23:13:25.909Z,59.00
2018-02-13T23:15:55.969Z,58.90
2018-02-13T23:18:25.967Z,58.90
2018-02-13T23:20:57.791Z,59.00
2018-02-13T23:23:27.146Z,58.90
2018-02-13T23:25:57.136Z,59.30
2018-02-13T23:28:27.306Z,59.10
2018-02-13T23:30:57.366Z,59.00
2018-02-13T23:33:26.244Z,59.00
2018-02-13T23:35:55.091Z,58.90
2018-02-13T23:38:23.922Z,59.10
2018-02-13T23:40:53.907Z,59.10
2018-02-13T23:43:23.557Z,59.30
2018-02-13T23:45:54.767Z,59.70
2018-02-13T23:48:33.385Z,59.70
2018-02-13T23:51:02.033Z,59.70
2018-02-13T23:53:31.734Z,59.80
2018-02-13T23:56:01.926Z,60.00
2018-02-13T23:58:32.979Z,59.80
